Pagina principale
METAR-TAF:

METAR-TAF

Aeroporti :

Amman, Giordania

latitudine: 31-59N, longitudine: 035-59E, altezza: 767 m

Osservazione

Il bollettino è stato emesso 38 minuti fa, alle 09:00 UTC
Vento 9 kt da ovest/nord-ovest
Temperature 27°C
Umidità 32%
Pressione 1014 hPa
Visibilità: 5000 m
foschia

METAR: OJAM 200900Z 30009KT 5000 HZ NSC 27/09 Q1014 NOSIG

Ora: 12:38 (09:38 UTC)

Previsione

Il bollettino è stato emesso 4 ore e 48 minuti fa, alle 04:50 UTC
Previsione valida dal 20 alle 06 UTC al 21 alle 12 UTC
Vento 12 kt da ovest
Visibilità: 5000 m
Nubi sparse ad un'altezza di 3000 ft
foschia

TAF: OJAM 200450Z 2006/2112 28012KT 5000 HZ SCT030

Osservazioni e previsioni meteorologiche di più di 4000 aeroporti (messaggi METAR e TAF).

Le stazioni disponibili sono rappresentate dai dischi gialli e rossi sulla carta.

Puntare il mouse per vedere il nome della stazione.

Clicca sopra per visualizzare le osservazioni e previsioni meteorologiche.

Per cambiare la mappa : fare clic sui pulsanti verdi con una croce nera per ingrandire, il pulsante verde con un trattino per diminuire, o sulla freccia verde per le mappe adiacenti.


METAR-TAF: